createdAt,value
2019-05-23T16:19:24.843Z,24.30
2019-05-23T16:22:01.087Z,23.80
2019-05-23T16:24:37.662Z,23.00
2019-05-23T16:27:13.745Z,22.70
2019-05-23T16:29:49.693Z,22.00
2019-05-23T16:32:25.503Z,23.50
2019-05-23T16:35:01.407Z,23.60
2019-05-23T16:37:37.240Z,24.30
2019-05-23T16:40:13.366Z,25.10
2019-05-23T16:42:49.193Z,24.50
2019-05-23T16:45:25.047Z,24.20
2019-05-23T16:48:01.266Z,24.40
2019-05-23T16:50:37.441Z,24.10
2019-05-23T16:53:13.250Z,24.10
2019-05-23T16:55:53.455Z,23.40
2019-05-23T16:58:40.029Z,24.00
2019-05-23T17:01:24.517Z,23.80
2019-05-23T17:04:05.342Z,25.50
2019-05-23T17:06:43.275Z,26.60
2019-05-23T17:09:20.785Z,26.10
2019-05-23T17:12:04.075Z,25.50
2019-05-23T17:14:41.586Z,27.00
2019-05-23T17:17:35.226Z,27.90
2019-05-23T17:19:58.297Z,29.70
2019-05-23T17:22:52.637Z,31.40
2019-05-23T17:25:33.949Z,31.60
2019-05-23T17:28:25.814Z,34.00
2019-05-23T17:31:03.788Z,34.90
2019-05-23T17:33:40.484Z,35.80
2019-05-23T17:36:16.942Z,35.70
2019-05-23T17:38:53.116Z,36.40
2019-05-23T17:41:28.904Z,36.60
2019-05-23T17:44:05.498Z,36.70
2019-05-23T17:46:41.631Z,37.20
2019-05-23T17:49:18.776Z,36.80
2019-05-23T17:51:54.608Z,37.20
2019-05-23T17:54:30.810Z,37.60
2019-05-23T17:57:08.005Z,37.00
2019-05-23T17:59:44.221Z,37.60
2019-05-23T18:02:21.732Z,38.70
2019-05-23T18:04:57.888Z,38.90
2019-05-23T18:07:33.849Z,39.60
2019-05-23T18:10:11.057Z,40.20
2019-05-23T18:12:47.293Z,40.30
2019-05-23T18:15:23.761Z,40.70
2019-05-23T18:21:13.026Z,41.60
2019-05-23T18:23:48.879Z,41.90
2019-05-23T18:26:25.700Z,42.40
2019-05-23T18:29:01.755Z,42.20
2019-05-23T18:31:39.433Z,42.50
2019-05-23T18:34:15.591Z,44.90
2019-05-23T18:36:52.242Z,47.20
2019-05-23T18:39:30.153Z,47.30
2019-05-23T18:42:06.691Z,48.20
2019-05-23T18:44:43.216Z,50.30
2019-05-23T18:47:26.448Z,52.50
2019-05-23T18:50:07.649Z,53.50
2019-05-23T18:52:43.831Z,54.40
2019-05-23T18:55:19.789Z,57.40
2019-05-23T18:57:56.091Z,59.50
2019-05-23T19:00:52.463Z,61.60
2019-05-23T19:03:29.484Z,62.30
2019-05-23T19:06:06.352Z,62.20
2019-05-23T19:08:42.653Z,62.90
2019-05-23T19:11:21.384Z,65.10
2019-05-23T19:13:56.369Z,66.80
2019-05-23T19:16:33.264Z,66.90
2019-05-23T19:19:09.305Z,67.10
2019-05-23T19:21:45.175Z,67.30
2019-05-23T19:24:21.246Z,67.60
2019-05-23T19:26:58.016Z,67.70
2019-05-23T19:29:34.444Z,67.90
2019-05-23T19:32:10.993Z,69.30
2019-05-23T19:34:46.851Z,70.30
2019-05-23T19:37:22.741Z,70.20
2019-05-23T19:39:58.649Z,70.60
2019-05-23T19:42:34.591Z,71.00
2019-05-23T19:45:10.441Z,71.60
2019-05-23T19:47:46.427Z,72.00
2019-05-23T19:50:22.578Z,71.50
2019-05-23T19:52:58.872Z,71.10
2019-05-23T19:55:39.864Z,71.50
2019-05-23T19:58:15.125Z,72.30
2019-05-23T20:00:51.250Z,73.80
2019-05-23T20:03:27.987Z,73.70
2019-05-23T20:06:04.203Z,74.50
2019-05-23T20:08:40.262Z,75.00
2019-05-23T20:11:16.242Z,75.30
2019-05-23T20:13:52.289Z,75.40
2019-05-23T20:16:28.341Z,74.60
2019-05-23T20:19:04.925Z,76.10
2019-05-23T20:21:40.886Z,76.50
2019-05-23T20:24:17.128Z,77.00
2019-05-23T20:26:52.921Z,77.40
2019-05-23T20:29:28.882Z,78.70
2019-05-23T20:32:05.450Z,79.80
2019-05-23T20:34:41.469Z,79.40
2019-05-23T20:37:17.877Z,79.80
2019-05-23T20:39:54.255Z,80.20
2019-05-23T20:42:30.339Z,81.20
2019-05-23T20:45:06.656Z,80.70
2019-05-23T20:47:42.699Z,80.20
2019-05-23T20:50:18.558Z,80.30
2019-05-23T20:52:54.442Z,79.80
2019-05-23T20:55:30.239Z,79.40
2019-05-23T20:58:06.149Z,79.00
2019-05-23T21:00:59.391Z,78.50
2019-05-23T21:03:36.257Z,78.20
2019-05-23T21:06:14.224Z,78.10
2019-05-23T21:08:50.391Z,77.80
2019-05-23T21:11:26.229Z,77.50
2019-05-23T21:14:02.315Z,77.00
2019-05-23T21:16:38.171Z,77.80
2019-05-23T21:19:14.006Z,78.50
2019-05-23T21:21:49.793Z,78.90
2019-05-23T21:24:25.859Z,79.10
2019-05-23T21:27:01.649Z,79.30
2019-05-23T21:29:37.529Z,79.60
2019-05-23T21:32:13.767Z,80.90
2019-05-23T21:34:49.814Z,81.10
2019-05-23T21:37:25.684Z,81.50
2019-05-23T21:40:01.490Z,82.50
2019-05-23T21:42:47.450Z,82.00
2019-05-23T21:45:15.772Z,82.20
2019-05-23T21:47:52.170Z,82.20
2019-05-23T21:50:29.469Z,82.20
2019-05-23T21:53:05.617Z,81.80
2019-05-23T21:55:42.989Z,81.60
2019-05-23T21:58:18.856Z,81.10
2019-05-23T22:01:08.553Z,81.00
2019-05-23T22:03:55.460Z,80.80
2019-05-23T22:06:41.517Z,81.00
2019-05-23T22:09:17.398Z,82.10
2019-05-23T22:11:53.758Z,81.50
2019-05-23T22:14:29.675Z,81.80
2019-05-23T22:17:05.726Z,81.90
2019-05-23T22:19:41.515Z,82.90
2019-05-23T22:22:17.449Z,83.10
2019-05-23T22:24:53.244Z,83.40
2019-05-23T22:27:29.182Z,83.50
2019-05-23T22:30:06.492Z,83.00
2019-05-23T22:32:43.337Z,83.10
2019-05-23T22:35:20.790Z,83.10
2019-05-23T22:37:56.685Z,83.40
2019-05-23T22:40:32.472Z,83.80
2019-05-23T22:43:20.130Z,84.90
2019-05-23T22:45:45.835Z,85.50
2019-05-23T22:48:21.663Z,86.70
2019-05-23T22:50:57.817Z,87.80
2019-05-23T22:53:34.757Z,88.80
2019-05-23T22:56:10.540Z,89.30
2019-05-23T22:58:46.795Z,89.10
2019-05-23T23:01:24.225Z,88.80
2019-05-23T23:04:00.023Z,88.10
2019-05-23T23:06:36.289Z,88.60
2019-05-23T23:09:12.344Z,88.50
2019-05-23T23:11:48.129Z,88.30
2019-05-23T23:14:23.936Z,88.30
2019-05-23T23:17:00.960Z,88.20
2019-05-23T23:19:36.765Z,88.10
2019-05-23T23:22:13.010Z,87.80
2019-05-23T23:24:49.267Z,87.80
2019-05-23T23:27:25.058Z,89.00
2019-05-23T23:30:00.867Z,88.90
2019-05-23T23:32:37.430Z,89.70
2019-05-23T23:35:13.548Z,90.00
2019-05-23T23:37:49.797Z,90.10
2019-05-23T23:40:25.996Z,90.20
2019-05-23T23:43:01.779Z,90.20
2019-05-23T23:45:56.031Z,90.20
2019-05-23T23:48:49.717Z,90.40
2019-05-23T23:51:42.973Z,90.50
2019-05-23T23:54:37.367Z,90.50
2019-05-23T23:57:31.629Z,90.50
